Meamina — 2AMK7 — position and weather

sailwx.info

Track history (hours):
 
Tides and Currents Weather Stations Pressure Air Temp Water Temp Dewpoint Dewpoint Depression Visibility Wind Speed Wind Dir Waves Ship Positions

Meamina

Last reported at 2016-Jun-26 00:23 UTC. Time now 2016-Jun-26 01:08 UTC.
Position N 26°07' W 080°05'.

Length 60 m; draft 3.2 m.

Type: Ship. MMSI: 235061022.

Date/timePositionNaut miles runAvg speedWind from/ knotsBaromVisibWave heightAir tempDewpointWater temp
2016-Jun-26 00:23N 26°07' W 080°05'0 0.0
2016-Jun-25 23:26N 26°07' W 080°05'0 0.0
2016-Jun-25 22:26N 26°07' W 080°05'1 1.3
2016-Jun-25 21:33N 26°06' W 080°04'5 5.4
2016-Jun-25 20:33N 26°11' W 080°03'2 1.8
2016-Jun-25 19:33N 26°09' W 080°02'7 6.8
2016-Jun-25 18:33N 26°04' W 080°07'1 1.1
2016-Jun-25 17:27N 26°04' W 080°08'0 0.0
2016-Jun-25 16:30N 26°04' W 080°08'0 0.0
2016-Jun-25 15:30N 26°04' W 080°08'0 0.0
2016-Jun-25 14:30N 26°04' W 080°08'0 0.0
2016-Jun-25 13:30N 26°04' W 080°08'0 0.0
2016-Jun-25 12:30N 26°04' W 080°08'0 0.0
2016-Jun-25 11:30N 26°04' W 080°08'0 0.0
2016-Jun-25 10:33N 26°04' W 080°08'0 0.0
2016-Jun-25 09:33N 26°04' W 080°08'0 0.0
2016-Jun-25 08:21N 26°04' W 080°08'0 0.0
2016-Jun-25 07:33N 26°04' W 080°08'0 0.0
2016-Jun-25 06:33N 26°04' W 080°08'0 0.0
2016-Jun-25 05:24N 26°04' W 080°08'0 0.0
2016-Jun-25 04:24N 26°04' W 080°08'0 0.0
2016-Jun-25 03:24N 26°04' W 080°08'0 0.0
2016-Jun-25 02:30N 26°04' W 080°08'0 0.0
2016-Jun-25 01:30N 26°04' W 080°08'0 0.0
2016-Jun-25 00:30N 26°04' W 080°08'0 0.0
2016-Jun-24 23:30N 26°04' W 080°08'0 0.0
2016-Jun-24 22:34N 26°04' W 080°08'0 0.0
2016-Jun-24 21:31N 26°04' W 080°08'0 0.0
2016-Jun-24 20:31N 26°04' W 080°08'0 0.0
2016-Jun-24 19:19N 26°04' W 080°08'0 0.0
2016-Jun-24 18:25N 26°04' W 080°08'0 0.0
2016-Jun-24 17:25N 26°04' W 080°08'0 0.0
2016-Jun-24 16:25N 26°04' W 080°08'0 0.0
2016-Jun-24 15:25N 26°04' W 080°08'0 0.0
2016-Jun-24 14:25N 26°04' W 080°08'0 0.0
2016-Jun-24 13:25N 26°04' W 080°08'0 0.0
2016-Jun-24 12:31N 26°04' W 080°08'0 0.0
2016-Jun-24 11:31N 26°04' W 080°08'0 0.0
2016-Jun-24 10:31N 26°04' W 080°08'0 0.0
2016-Jun-24 09:31N 26°04' W 080°08'0 0.0
2016-Jun-24 08:31N 26°04' W 080°08'0 0.0
2016-Jun-24 07:31N 26°04' W 080°08'0 0.0
2016-Jun-24 04:25N 26°04' W 080°08'0 0.0
2016-Jun-24 03:25N 26°04' W 080°08'0 0.0
2016-Jun-24 02:25N 26°04' W 080°08'0 0.0
2016-Jun-24 01:22N 26°04' W 080°08'0 0.0
2016-Jun-24 00:22N 26°04' W 080°08'0 0.0
2016-Jun-23 23:31N 26°04' W 080°08'0 0.0
2016-Jun-23 22:31N 26°04' W 080°08'0 0.0
2016-Jun-23 21:31N 26°04' W 080°08'0 0.0
2016-Jun-23 20:28N 26°04' W 080°08'0 0.0
2016-Jun-23 19:31N 26°04' W 080°08'0 0.0
2016-Jun-23 18:31N 26°04' W 080°08'0 0.0
2016-Jun-23 17:31N 26°04' W 080°08'0 0.0
2016-Jun-23 16:31N 26°04' W 080°08'0 0.0
2016-Jun-23 15:19N 26°04' W 080°08'0 0.0
2016-Jun-23 14:25N 26°04' W 080°08'0 0.0
2016-Jun-23 13:25N 26°04' W 080°08'0 0.0
2016-Jun-23 12:25N 26°04' W 080°08'0 0.0
2016-Jun-23 11:25N 26°04' W 080°08'0 0.0
2016-Jun-23 10:25N 26°04' W 080°08'0 0.0
2016-Jun-23 09:31N 26°04' W 080°08'0 0.0
2016-Jun-23 08:31N 26°04' W 080°08'0 0.0
2016-Jun-23 07:31N 26°04' W 080°08'0 0.0
2016-Jun-23 05:31N 26°04' W 080°08'0 0.0
2016-Jun-23 04:31N 26°04' W 080°08'0 0.0
2016-Jun-23 03:19N 26°04' W 080°08'0 0.0
2016-Jun-23 02:31N 26°04' W 080°08'0 0.0
2016-Jun-23 01:19N 26°04' W 080°08'0 0.0
2016-Jun-23 00:25N 26°04' W 080°08'0 0.0
2016-Jun-22 23:22N 26°04' W 080°08'0 0.0
2016-Jun-22 22:10N 26°04' W 080°08'0 0.0
2016-Jun-22 21:25N 26°04' W 080°08'0 0.0
2016-Jun-22 20:25N 26°04' W 080°08'0 0.0
2016-Jun-22 19:28N 26°04' W 080°08'0 0.0
2016-Jun-22 18:31N 26°04' W 080°08'0 0.0
2016-Jun-22 17:31N 26°04' W 080°08'0 0.0
2016-Jun-22 16:31N 26°04' W 080°08'0 0.0
2016-Jun-22 15:28N 26°04' W 080°08'0 0.0
2016-Jun-22 14:19N 26°04' W 080°08'0 0.0
2016-Jun-22 13:31N 26°04' W 080°08'0 0.0
2016-Jun-22 12:31N 26°04' W 080°08'0 0.0
2016-Jun-22 11:19N 26°04' W 080°08'0 0.0
2016-Jun-22 10:25N 26°04' W 080°08'0 0.0
2016-Jun-22 09:25N 26°04' W 080°08'0 0.0
2016-Jun-22 08:22N 26°04' W 080°08'0 0.0
2016-Jun-22 07:25N 26°04' W 080°08'0 0.0
2016-Jun-22 06:25N 26°04' W 080°08'0 0.0
2016-Jun-22 05:31N 26°04' W 080°08'0 0.0
2016-Jun-22 04:31N 26°04' W 080°08'0 0.0
2016-Jun-22 03:31N 26°04' W 080°08'0 0.0
2016-Jun-22 02:31N 26°04' W 080°08'0 0.0
2016-Jun-22 01:31N 26°04' W 080°08'0 0.0
2016-Jun-22 00:31N 26°04' W 080°08'0 0.0
2016-Jun-21 23:31N 26°04' W 080°08'0 0.0
2016-Jun-21 22:31N 26°04' W 080°08'0 0.0
2016-Jun-21 21:19N 26°04' W 080°08'0 0.0
2016-Jun-21 20:25N 26°04' W 080°08'0 0.0
2016-Jun-21 19:25N 26°04' W 080°08'0 0.0
2016-Jun-21 18:25N 26°04' W 080°08'0 0.0
2016-Jun-21 17:25N 26°04' W 080°08'0 0.0
2016-Jun-21 16:25N 26°04' W 080°08'0 0.0
2016-Jun-21 15:28N 26°04' W 080°08'0 0.0
2016-Jun-21 14:31N 26°04' W 080°08'0 0.0
2016-Jun-21 13:31N 26°04' W 080°08'0 0.0
2016-Jun-21 12:31N 26°04' W 080°08'0 0.0
2016-Jun-21 11:31N 26°04' W 080°08'0 0.0
2016-Jun-21 10:31N 26°04' W 080°08'0 0.0
2016-Jun-21 09:31N 26°04' W 080°08'0 0.0
2016-Jun-21 08:31N 26°04' W 080°08'0 0.0
2016-Jun-21 07:19N 26°04' W 080°08'0 0.0
2016-Jun-21 06:22N 26°04' W 080°08'0 0.0
2016-Jun-21 04:25N 26°04' W 080°08'0 0.0
2016-Jun-21 03:25N 26°04' W 080°08'0 0.0
2016-Jun-21 02:25N 26°04' W 080°08'0 0.0
2016-Jun-21 01:25N 26°04' W 080°08'0 0.0
2016-Jun-21 00:31N 26°04' W 080°08'0 0.0
2016-Jun-20 23:31N 26°04' W 080°08'0 0.0
2016-Jun-20 22:31N 26°04' W 080°08'0 0.0
2016-Jun-20 21:31N 26°04' W 080°08'0 0.0
2016-Jun-20 20:31N 26°04' W 080°08'0 0.0
2016-Jun-20 19:25N 26°04' W 080°08'0 0.0
2016-Jun-20 18:22N 26°04' W 080°08'0 0.0
2016-Jun-20 17:25N 26°04' W 080°08'0 0.0
2016-Jun-20 16:25N 26°04' W 080°08'0 0.0
2016-Jun-20 15:28N 26°04' W 080°08'0 0.0
2016-Jun-20 14:31N 26°04' W 080°08'0 0.0
2016-Jun-20 13:31N 26°04' W 080°08'0 0.0
2016-Jun-20 12:31N 26°04' W 080°08'0 0.0
2016-Jun-20 11:28N 26°04' W 080°08'0 0.0
2016-Jun-20 10:31N 26°04' W 080°08'0 0.0
2016-Jun-20 09:31N 26°04' W 080°08'0 0.0
2016-Jun-20 08:31N 26°04' W 080°08'0 0.0
2016-Jun-20 07:19N 26°04' W 080°08'0 0.0
2016-Jun-20 06:25N 26°04' W 080°08'0 0.0
2016-Jun-20 05:25N 26°04' W 080°08'0 0.0
2016-Jun-20 04:25N 26°04' W 080°08'0 0.0
2016-Jun-20 03:25N 26°04' W 080°08'0 0.0
2016-Jun-20 02:25N 26°04' W 080°08'0 0.0
2016-Jun-20 01:28N 26°04' W 080°08'0 0.0
2016-Jun-20 00:31N 26°04' W 080°08'0 0.0
2016-Jun-19 23:28N 26°04' W 080°08'0 0.0
2016-Jun-19 22:31N 26°04' W 080°08'0 0.0
2016-Jun-19 21:31N 26°04' W 080°08'0 0.0
2016-Jun-19 20:31N 26°04' W 080°08'0 0.0
2016-Jun-19 19:31N 26°04' W 080°08'0 0.0
2016-Jun-19 18:28N 26°04' W 080°08'0 0.0
2016-Jun-19 17:25N 26°04' W 080°08'0 0.0
2016-Jun-19 16:25N 26°04' W 080°08'0 0.0
2016-Jun-19 15:25N 26°04' W 080°08'0 0.0
2016-Jun-19 14:25N 26°04' W 080°08'0 0.0
2016-Jun-19 13:25N 26°04' W 080°08'0 0.0
2016-Jun-19 12:25N 26°04' W 080°08'0 0.0
2016-Jun-19 11:31N 26°04' W 080°08'0 0.0
2016-Jun-19 10:31N 26°04' W 080°08'0 0.0
2016-Jun-19 09:31N 26°04' W 080°08'0 0.0
2016-Jun-19 08:31N 26°04' W 080°08'0 0.0
2016-Jun-19 07:31N 26°04' W 080°08'0 0.0
2016-Jun-19 06:28N 26°04' W 080°08'0 0.0
2016-Jun-19 05:31N 26°04' W 080°08'0 0.0
2016-Jun-19 04:16N 26°04' W 080°08'0 0.0
2016-Jun-19 03:19N 26°04' W 080°08'0 0.0
2016-Jun-19 02:25N 26°04' W 080°08'0 0.0
2016-Jun-19 01:25N 26°04' W 080°08'0 0.0
2016-Jun-19 00:25N 26°04' W 080°08'0 0.0
2016-Jun-18 23:25N 26°04' W 080°08'0 0.0
2016-Jun-18 22:25N 26°04' W 080°08'0 0.0
2016-Jun-18 21:28N 26°04' W 080°08'0 0.0
2016-Jun-18 20:31N 26°04' W 080°08'0 0.0
2016-Jun-18 19:28N 26°04' W 080°08'0 0.0
2016-Jun-18 18:31N 26°04' W 080°08'0 0.0
2016-Jun-18 17:31N 26°04' W 080°08'0 0.0
2016-Jun-18 16:31N 26°04' W 080°08'0 0.0
2016-Jun-18 15:28N 26°04' W 080°08'0 0.0
2016-Jun-18 14:19N 26°04' W 080°08'0 0.0
2016-Jun-18 13:22N 26°04' W 080°08'0 0.0
2016-Jun-18 12:25N 26°04' W 080°08'0 0.0
2016-Jun-18 11:25N 26°04' W 080°08'0 0.0
2016-Jun-18 10:25N 26°04' W 080°08'0 0.0
2016-Jun-18 09:25N 26°04' W 080°08'0 0.0
2016-Jun-18 08:22N 26°04' W 080°08'0 0.0
2016-Jun-18 07:25N 26°04' W 080°08'0 0.0
2016-Jun-18 06:31N 26°04' W 080°08'0 0.0
2016-Jun-18 05:28N 26°04' W 080°08'0 0.0
2016-Jun-18 04:28N 26°04' W 080°08'0 0.0
2016-Jun-18 03:31N 26°04' W 080°08'0 0.0
2016-Jun-18 02:31N 26°04' W 080°08'0 0.0
2016-Jun-18 01:28N 26°04' W 080°08'0 0.0
2016-Jun-18 00:31N 26°04' W 080°08'0 0.0
2016-Jun-17 23:19N 26°04' W 080°08'0 0.0
2016-Jun-17 22:25N 26°04' W 080°08'0 0.0
2016-Jun-17 21:25N 26°04' W 080°08'0 0.0
2016-Jun-17 20:25N 26°04' W 080°08'0 0.0
2016-Jun-17 19:25N 26°04' W 080°08'0 0.0
2016-Jun-17 18:25N 26°04' W 080°08'0 0.0
2016-Jun-17 17:31N 26°04' W 080°08'0 0.0
2016-Jun-17 16:31N 26°04' W 080°08'0 0.0
2016-Jun-17 15:13N 26°04' W 080°08'0 0.0
2016-Jun-17 14:28N 26°04' W 080°08'0 0.0
2016-Jun-17 13:28N 26°04' W 080°08'0 0.0
2016-Jun-17 12:31N 26°04' W 080°08'0 0.0
2016-Jun-17 11:31N 26°04' W 080°08'0 0.0
2016-Jun-17 10:31N 26°04' W 080°08'0 0.0
2016-Jun-17 09:22N 26°04' W 080°08'0 0.0
2016-Jun-17 08:25N 26°04' W 080°08'0 0.0
2016-Jun-17 07:25N 26°04' W 080°08'0 0.0
2016-Jun-17 06:25N 26°04' W 080°08'0 0.0
2016-Jun-17 05:25N 26°04' W 080°08'0 0.0
2016-Jun-17 04:22N 26°04' W 080°08'0 0.0
2016-Jun-17 03:28N 26°04' W 080°08'0 0.0
2016-Jun-17 02:31N 26°04' W 080°08'0 0.0
2016-Jun-17 01:31N 26°04' W 080°08'0 0.0
2016-Jun-17 00:31N 26°04' W 080°08'0 0.0
2016-Jun-16 23:31N 26°04' W 080°08'0 0.0
2016-Jun-16 22:31N 26°04' W 080°08'0 0.0
2016-Jun-16 21:31N 26°04' W 080°08'0 0.0
2016-Jun-16 20:31N 26°04' W 080°08'0 0.0
2016-Jun-16 19:19N 26°04' W 080°08'0 0.0
2016-Jun-16 18:25N 26°04' W 080°08'0 0.0
2016-Jun-16 17:25N 26°04' W 080°08'0 0.0
2016-Jun-16 16:04N 26°04' W 080°08'0 0.0
2016-Jun-16 15:25N 26°04' W 080°08'0 0.0
2016-Jun-16 12:31N 26°04' W 080°08'0 0.0
2016-Jun-16 11:31N 26°04' W 080°08'0 0.0
2016-Jun-16 10:31N 26°04' W 080°08'0 0.0
2016-Jun-16 09:31N 26°04' W 080°08'0 0.0
2016-Jun-16 08:31N 26°04' W 080°08'0 0.0
2016-Jun-16 07:31N 26°04' W 080°08'0 0.0
2016-Jun-16 06:31N 26°04' W 080°08'0 0.0
2016-Jun-16 04:25N 26°04' W 080°08'0 0.0
2016-Jun-16 03:25N 26°04' W 080°08'0 0.0
2016-Jun-16 02:25N 26°04' W 080°08'0 0.0
2016-Jun-16 01:25N 26°04' W 080°08'0 0.0
2016-Jun-16 00:25N 26°04' W 080°08'  
Track history (hours):
 
Tides and Currents Weather Stations Pressure Air Temp Water Temp Dewpoint Dewpoint Depression Visibility Wind Speed Wind Dir Waves Ship Positions

Meamina

Last reported at 2016-Jun-26 00:23 UTC. Time now 2016-Jun-26 01:08 UTC.
Position N 26°07' W 080°05'.

Length 60 m; draft 3.2 m.

Type: Ship. MMSI: 235061022.

Date/timePositionNaut miles runAvg speedWind from/ knotsBaromVisibWave heightAir tempDewpointWater temp
2016-Jun-26 00:23N 26°07' W 080°05'0 0.0
2016-Jun-25 23:26N 26°07' W 080°05'0 0.0
2016-Jun-25 22:26N 26°07' W 080°05'1 1.3
2016-Jun-25 21:33N 26°06' W 080°04'5 5.4
2016-Jun-25 20:33N 26°11' W 080°03'2 1.8
2016-Jun-25 19:33N 26°09' W 080°02'7 6.8
2016-Jun-25 18:33N 26°04' W 080°07'1 1.1
2016-Jun-25 17:27N 26°04' W 080°08'0 0.0
2016-Jun-25 16:30N 26°04' W 080°08'0 0.0
2016-Jun-25 15:30N 26°04' W 080°08'0 0.0
2016-Jun-25 14:30N 26°04' W 080°08'0 0.0
2016-Jun-25 13:30N 26°04' W 080°08'0 0.0
2016-Jun-25 12:30N 26°04' W 080°08'0 0.0
2016-Jun-25 11:30N 26°04' W 080°08'0 0.0
2016-Jun-25 10:33N 26°04' W 080°08'0 0.0
2016-Jun-25 09:33N 26°04' W 080°08'0 0.0
2016-Jun-25 08:21N 26°04' W 080°08'0 0.0
2016-Jun-25 07:33N 26°04' W 080°08'0 0.0
2016-Jun-25 06:33N 26°04' W 080°08'0 0.0
2016-Jun-25 05:24N 26°04' W 080°08'0 0.0
2016-Jun-25 04:24N 26°04' W 080°08'0 0.0
2016-Jun-25 03:24N 26°04' W 080°08'0 0.0
2016-Jun-25 02:30N 26°04' W 080°08'0 0.0
2016-Jun-25 01:30N 26°04' W 080°08'0 0.0
2016-Jun-25 00:30N 26°04' W 080°08'0 0.0
2016-Jun-24 23:30N 26°04' W 080°08'0 0.0
2016-Jun-24 22:34N 26°04' W 080°08'0 0.0
2016-Jun-24 21:31N 26°04' W 080°08'0 0.0
2016-Jun-24 20:31N 26°04' W 080°08'0 0.0
2016-Jun-24 19:19N 26°04' W 080°08'0 0.0
2016-Jun-24 18:25N 26°04' W 080°08'0 0.0
2016-Jun-24 17:25N 26°04' W 080°08'0 0.0
2016-Jun-24 16:25N 26°04' W 080°08'0 0.0
2016-Jun-24 15:25N 26°04' W 080°08'0 0.0
2016-Jun-24 14:25N 26°04' W 080°08'0 0.0
2016-Jun-24 13:25N 26°04' W 080°08'0 0.0
2016-Jun-24 12:31N 26°04' W 080°08'0 0.0
2016-Jun-24 11:31N 26°04' W 080°08'0 0.0
2016-Jun-24 10:31N 26°04' W 080°08'0 0.0
2016-Jun-24 09:31N 26°04' W 080°08'0 0.0
2016-Jun-24 08:31N 26°04' W 080°08'0 0.0
2016-Jun-24 07:31N 26°04' W 080°08'0 0.0
2016-Jun-24 04:25N 26°04' W 080°08'0 0.0
2016-Jun-24 03:25N 26°04' W 080°08'0 0.0
2016-Jun-24 02:25N 26°04' W 080°08'0 0.0
2016-Jun-24 01:22N 26°04' W 080°08'0 0.0
2016-Jun-24 00:22N 26°04' W 080°08'0 0.0
2016-Jun-23 23:31N 26°04' W 080°08'0 0.0
2016-Jun-23 22:31N 26°04' W 080°08'0 0.0
2016-Jun-23 21:31N 26°04' W 080°08'0 0.0
2016-Jun-23 20:28N 26°04' W 080°08'0 0.0
2016-Jun-23 19:31N 26°04' W 080°08'0 0.0
2016-Jun-23 18:31N 26°04' W 080°08'0 0.0
2016-Jun-23 17:31N 26°04' W 080°08'0 0.0
2016-Jun-23 16:31N 26°04' W 080°08'0 0.0
2016-Jun-23 15:19N 26°04' W 080°08'0 0.0
2016-Jun-23 14:25N 26°04' W 080°08'0 0.0
2016-Jun-23 13:25N 26°04' W 080°08'0 0.0
2016-Jun-23 12:25N 26°04' W 080°08'0 0.0
2016-Jun-23 11:25N 26°04' W 080°08'0 0.0
2016-Jun-23 10:25N 26°04' W 080°08'0 0.0
2016-Jun-23 09:31N 26°04' W 080°08'0 0.0
2016-Jun-23 08:31N 26°04' W 080°08'0 0.0
2016-Jun-23 07:31N 26°04' W 080°08'0 0.0
2016-Jun-23 05:31N 26°04' W 080°08'0 0.0
2016-Jun-23 04:31N 26°04' W 080°08'0 0.0
2016-Jun-23 03:19N 26°04' W 080°08'0 0.0
2016-Jun-23 02:31N 26°04' W 080°08'0 0.0
2016-Jun-23 01:19N 26°04' W 080°08'0 0.0
2016-Jun-23 00:25N 26°04' W 080°08'0 0.0
2016-Jun-22 23:22N 26°04' W 080°08'0 0.0
2016-Jun-22 22:10N 26°04' W 080°08'0 0.0
2016-Jun-22 21:25N 26°04' W 080°08'0 0.0
2016-Jun-22 20:25N 26°04' W 080°08'0 0.0
2016-Jun-22 19:28N 26°04' W 080°08'0 0.0
2016-Jun-22 18:31N 26°04' W 080°08'0 0.0
2016-Jun-22 17:31N 26°04' W 080°08'0 0.0
2016-Jun-22 16:31N 26°04' W 080°08'0 0.0
2016-Jun-22 15:28N 26°04' W 080°08'0 0.0
2016-Jun-22 14:19N 26°04' W 080°08'0 0.0
2016-Jun-22 13:31N 26°04' W 080°08'0 0.0
2016-Jun-22 12:31N 26°04' W 080°08'0 0.0
2016-Jun-22 11:19N 26°04' W 080°08'0 0.0
2016-Jun-22 10:25N 26°04' W 080°08'0 0.0
2016-Jun-22 09:25N 26°04' W 080°08'0 0.0
2016-Jun-22 08:22N 26°04' W 080°08'0 0.0
2016-Jun-22 07:25N 26°04' W 080°08'0 0.0
2016-Jun-22 06:25N 26°04' W 080°08'0 0.0
2016-Jun-22 05:31N 26°04' W 080°08'0 0.0
2016-Jun-22 04:31N 26°04' W 080°08'0 0.0
2016-Jun-22 03:31N 26°04' W 080°08'0 0.0
2016-Jun-22 02:31N 26°04' W 080°08'0 0.0
2016-Jun-22 01:31N 26°04' W 080°08'0 0.0
2016-Jun-22 00:31N 26°04' W 080°08'0 0.0
2016-Jun-21 23:31N 26°04' W 080°08'0 0.0
2016-Jun-21 22:31N 26°04' W 080°08'0 0.0
2016-Jun-21 21:19N 26°04' W 080°08'0 0.0
2016-Jun-21 20:25N 26°04' W 080°08'0 0.0
2016-Jun-21 19:25N 26°04' W 080°08'0 0.0
2016-Jun-21 18:25N 26°04' W 080°08'0 0.0
2016-Jun-21 17:25N 26°04' W 080°08'0 0.0
2016-Jun-21 16:25N 26°04' W 080°08'0 0.0
2016-Jun-21 15:28N 26°04' W 080°08'0 0.0
2016-Jun-21 14:31N 26°04' W 080°08'0 0.0
2016-Jun-21 13:31N 26°04' W 080°08'0 0.0
2016-Jun-21 12:31N 26°04' W 080°08'0 0.0
2016-Jun-21 11:31N 26°04' W 080°08'0 0.0
2016-Jun-21 10:31N 26°04' W 080°08'0 0.0
2016-Jun-21 09:31N 26°04' W 080°08'0 0.0
2016-Jun-21 08:31N 26°04' W 080°08'0 0.0
2016-Jun-21 07:19N 26°04' W 080°08'0 0.0
2016-Jun-21 06:22N 26°04' W 080°08'0 0.0
2016-Jun-21 04:25N 26°04' W 080°08'0 0.0
2016-Jun-21 03:25N 26°04' W 080°08'0 0.0
2016-Jun-21 02:25N 26°04' W 080°08'0 0.0
2016-Jun-21 01:25N 26°04' W 080°08'0 0.0
2016-Jun-21 00:31N 26°04' W 080°08'0 0.0
2016-Jun-20 23:31N 26°04' W 080°08'0 0.0
2016-Jun-20 22:31N 26°04' W 080°08'0 0.0
2016-Jun-20 21:31N 26°04' W 080°08'0 0.0
2016-Jun-20 20:31N 26°04' W 080°08'0 0.0
2016-Jun-20 19:25N 26°04' W 080°08'0 0.0
2016-Jun-20 18:22N 26°04' W 080°08'0 0.0
2016-Jun-20 17:25N 26°04' W 080°08'0 0.0
2016-Jun-20 16:25N 26°04' W 080°08'0 0.0
2016-Jun-20 15:28N 26°04' W 080°08'0 0.0
2016-Jun-20 14:31N 26°04' W 080°08'0 0.0
2016-Jun-20 13:31N 26°04' W 080°08'0 0.0
2016-Jun-20 12:31N 26°04' W 080°08'0 0.0
2016-Jun-20 11:28N 26°04' W 080°08'0 0.0
2016-Jun-20 10:31N 26°04' W 080°08'0 0.0
2016-Jun-20 09:31N 26°04' W 080°08'0 0.0
2016-Jun-20 08:31N 26°04' W 080°08'0 0.0
2016-Jun-20 07:19N 26°04' W 080°08'0 0.0
2016-Jun-20 06:25N 26°04' W 080°08'0 0.0
2016-Jun-20 05:25N 26°04' W 080°08'0 0.0
2016-Jun-20 04:25N 26°04' W 080°08'0 0.0
2016-Jun-20 03:25N 26°04' W 080°08'0 0.0
2016-Jun-20 02:25N 26°04' W 080°08'0 0.0
2016-Jun-20 01:28N 26°04' W 080°08'0 0.0
2016-Jun-20 00:31N 26°04' W 080°08'0 0.0
2016-Jun-19 23:28N 26°04' W 080°08'0 0.0
2016-Jun-19 22:31N 26°04' W 080°08'0 0.0
2016-Jun-19 21:31N 26°04' W 080°08'0 0.0
2016-Jun-19 20:31N 26°04' W 080°08'0 0.0
2016-Jun-19 19:31N 26°04' W 080°08'0 0.0
2016-Jun-19 18:28N 26°04' W 080°08'0 0.0
2016-Jun-19 17:25N 26°04' W 080°08'0 0.0
2016-Jun-19 16:25N 26°04' W 080°08'0 0.0
2016-Jun-19 15:25N 26°04' W 080°08'0 0.0
2016-Jun-19 14:25N 26°04' W 080°08'0 0.0
2016-Jun-19 13:25N 26°04' W 080°08'0 0.0
2016-Jun-19 12:25N 26°04' W 080°08'0 0.0
2016-Jun-19 11:31N 26°04' W 080°08'0 0.0
2016-Jun-19 10:31N 26°04' W 080°08'0 0.0
2016-Jun-19 09:31N 26°04' W 080°08'0 0.0
2016-Jun-19 08:31N 26°04' W 080°08'0 0.0
2016-Jun-19 07:31N 26°04' W 080°08'0 0.0
2016-Jun-19 06:28N 26°04' W 080°08'0 0.0
2016-Jun-19 05:31N 26°04' W 080°08'0 0.0
2016-Jun-19 04:16N 26°04' W 080°08'0 0.0
2016-Jun-19 03:19N 26°04' W 080°08'0 0.0
2016-Jun-19 02:25N 26°04' W 080°08'0 0.0
2016-Jun-19 01:25N 26°04' W 080°08'0 0.0
2016-Jun-19 00:25N 26°04' W 080°08'0 0.0
2016-Jun-18 23:25N 26°04' W 080°08'0 0.0
2016-Jun-18 22:25N 26°04' W 080°08'0 0.0
2016-Jun-18 21:28N 26°04' W 080°08'0 0.0
2016-Jun-18 20:31N 26°04' W 080°08'0 0.0
2016-Jun-18 19:28N 26°04' W 080°08'0 0.0
2016-Jun-18 18:31N 26°04' W 080°08'0 0.0
2016-Jun-18 17:31N 26°04' W 080°08'0 0.0
2016-Jun-18 16:31N 26°04' W 080°08'0 0.0
2016-Jun-18 15:28N 26°04' W 080°08'0 0.0
2016-Jun-18 14:19N 26°04' W 080°08'0 0.0
2016-Jun-18 13:22N 26°04' W 080°08'0 0.0
2016-Jun-18 12:25N 26°04' W 080°08'0 0.0
2016-Jun-18 11:25N 26°04' W 080°08'0 0.0
2016-Jun-18 10:25N 26°04' W 080°08'0 0.0
2016-Jun-18 09:25N 26°04' W 080°08'0 0.0
2016-Jun-18 08:22N 26°04' W 080°08'0 0.0
2016-Jun-18 07:25N 26°04' W 080°08'0 0.0
2016-Jun-18 06:31N 26°04' W 080°08'0 0.0
2016-Jun-18 05:28N 26°04' W 080°08'0 0.0
2016-Jun-18 04:28N 26°04' W 080°08'0 0.0
2016-Jun-18 03:31N 26°04' W 080°08'0 0.0
2016-Jun-18 02:31N 26°04' W 080°08'0 0.0
2016-Jun-18 01:28N 26°04' W 080°08'0 0.0
2016-Jun-18 00:31N 26°04' W 080°08'0 0.0
2016-Jun-17 23:19N 26°04' W 080°08'0 0.0
2016-Jun-17 22:25N 26°04' W 080°08'0 0.0
2016-Jun-17 21:25N 26°04' W 080°08'0 0.0
2016-Jun-17 20:25N 26°04' W 080°08'0 0.0
2016-Jun-17 19:25N 26°04' W 080°08'0 0.0
2016-Jun-17 18:25N 26°04' W 080°08'0 0.0
2016-Jun-17 17:31N 26°04' W 080°08'0 0.0
2016-Jun-17 16:31N 26°04' W 080°08'0 0.0
2016-Jun-17 15:13N 26°04' W 080°08'0 0.0
2016-Jun-17 14:28N 26°04' W 080°08'0 0.0
2016-Jun-17 13:28N 26°04' W 080°08'0 0.0
2016-Jun-17 12:31N 26°04' W 080°08'0 0.0
2016-Jun-17 11:31N 26°04' W 080°08'0 0.0
2016-Jun-17 10:31N 26°04' W 080°08'0 0.0
2016-Jun-17 09:22N 26°04' W 080°08'0 0.0
2016-Jun-17 08:25N 26°04' W 080°08'0 0.0
2016-Jun-17 07:25N 26°04' W 080°08'0 0.0
2016-Jun-17 06:25N 26°04' W 080°08'0 0.0
2016-Jun-17 05:25N 26°04' W 080°08'0 0.0
2016-Jun-17 04:22N 26°04' W 080°08'0 0.0
2016-Jun-17 03:28N 26°04' W 080°08'0 0.0
2016-Jun-17 02:31N 26°04' W 080°08'0 0.0
2016-Jun-17 01:31N 26°04' W 080°08'0 0.0
2016-Jun-17 00:31N 26°04' W 080°08'0 0.0
2016-Jun-16 23:31N 26°04' W 080°08'0 0.0
2016-Jun-16 22:31N 26°04' W 080°08'0 0.0
2016-Jun-16 21:31N 26°04' W 080°08'0 0.0
2016-Jun-16 20:31N 26°04' W 080°08'0 0.0
2016-Jun-16 19:19N 26°04' W 080°08'0 0.0
2016-Jun-16 18:25N 26°04' W 080°08'0 0.0
2016-Jun-16 17:25N 26°04' W 080°08'0 0.0
2016-Jun-16 16:04N 26°04' W 080°08'0 0.0
2016-Jun-16 15:25N 26°04' W 080°08'0 0.0
2016-Jun-16 12:31N 26°04' W 080°08'0 0.0
2016-Jun-16 11:31N 26°04' W 080°08'0 0.0
2016-Jun-16 10:31N 26°04' W 080°08'0 0.0
2016-Jun-16 09:31N 26°04' W 080°08'0 0.0
2016-Jun-16 08:31N 26°04' W 080°08'0 0.0
2016-Jun-16 07:31N 26°04' W 080°08'0 0.0
2016-Jun-16 06:31N 26°04' W 080°08'0 0.0
2016-Jun-16 04:25N 26°04' W 080°08'0 0.0
2016-Jun-16 03:25N 26°04' W 080°08'0 0.0
2016-Jun-16 02:25N 26°04' W 080°08'0 0.0
2016-Jun-16 01:25N 26°04' W 080°08'0 0.0
2016-Jun-16 00:25N 26°04' W 080°08'  

Dump ship's entire track history